createdAt,value
2023-08-29T00:01:42.830Z,61.30
2023-08-29T00:04:09.884Z,61.30
2023-08-29T00:06:37.049Z,61.30
2023-08-29T00:09:05.096Z,61.30
2023-08-29T00:11:32.398Z,61.20
2023-08-29T00:14:00.318Z,61.30
2023-08-29T00:16:27.919Z,61.30
2023-08-29T00:18:55.006Z,61.30
2023-08-29T00:21:22.227Z,61.30
2023-08-29T00:23:49.690Z,61.30
2023-08-29T00:26:17.025Z,61.30
2023-08-29T00:28:45.956Z,61.30
2023-08-29T00:31:12.984Z,61.30
2023-08-29T00:33:40.192Z,61.30
2023-08-29T00:36:07.407Z,61.30
2023-08-29T00:38:34.800Z,61.30
2023-08-29T00:41:02.258Z,61.30
2023-08-29T00:43:30.665Z,61.30
2023-08-29T00:45:59.193Z,61.30
2023-08-29T00:48:26.959Z,61.20
2023-08-29T00:50:56.220Z,61.10
2023-08-29T00:53:26.319Z,61.10
2023-08-29T00:55:53.708Z,61.90
2023-08-29T00:58:20.929Z,61.00
2023-08-29T01:00:49.591Z,61.00
2023-08-29T01:03:17.167Z,61.00
2023-08-29T01:05:44.240Z,61.00
2023-08-29T01:08:13.760Z,60.90
2023-08-29T01:11:16.235Z,60.90
2023-08-29T01:14:24.116Z,60.90
2023-08-29T01:17:02.621Z,61.00
2023-08-29T01:19:34.642Z,60.90
2023-08-29T01:22:26.301Z,60.80
2023-08-29T01:25:20.738Z,61.00
2023-08-29T01:27:49.950Z,62.00
2023-08-29T01:30:18.023Z,61.10
2023-08-29T01:32:45.967Z,61.10
2023-08-29T01:35:16.837Z,61.00
2023-08-29T01:37:43.835Z,61.10
2023-08-29T01:40:11.872Z,61.20
2023-08-29T01:42:39.091Z,61.10
2023-08-29T01:45:07.317Z,61.20
2023-08-29T01:47:35.703Z,61.20
2023-08-29T01:50:05.714Z,61.10
2023-08-29T01:52:33.162Z,61.10
2023-08-29T01:55:00.251Z,61.10
2023-08-29T01:57:29.486Z,61.10
2023-08-29T01:59:58.421Z,61.10
2023-08-29T02:02:25.828Z,61.30
2023-08-29T02:04:53.322Z,61.20
2023-08-29T02:07:20.612Z,61.20
2023-08-29T02:09:47.604Z,61.10
2023-08-29T02:12:14.782Z,61.20
2023-08-29T02:14:42.243Z,61.20
2023-08-29T02:17:09.312Z,61.10
2023-08-29T02:19:36.619Z,61.00
2023-08-29T02:22:03.714Z,61.10
2023-08-29T02:24:32.327Z,61.00
2023-08-29T02:26:59.948Z,60.90
2023-08-29T02:29:27.063Z,61.00
2023-08-29T02:31:54.189Z,61.10
2023-08-29T02:34:21.286Z,61.00
2023-08-29T02:36:48.360Z,61.10
2023-08-29T02:39:15.554Z,61.00
2023-08-29T02:41:42.585Z,61.00
2023-08-29T02:44:09.892Z,61.00
2023-08-29T02:46:36.921Z,61.00
2023-08-29T02:49:04.072Z,61.00
2023-08-29T02:51:31.264Z,61.00
2023-08-29T02:53:58.276Z,61.00
2023-08-29T02:56:25.616Z,61.00
2023-08-29T02:58:53.794Z,60.90
2023-08-29T03:01:21.292Z,61.00
2023-08-29T03:03:49.274Z,61.00
2023-08-29T03:06:17.822Z,61.10
2023-08-29T03:08:45.114Z,61.00
2023-08-29T03:11:13.101Z,61.00
2023-08-29T03:13:40.324Z,61.00
2023-08-29T03:16:18.912Z,61.10
2023-08-29T03:18:47.911Z,61.10
2023-08-29T03:21:15.049Z,61.00
2023-08-29T03:23:42.007Z,61.10
2023-08-29T03:26:11.527Z,61.10
2023-08-29T03:28:39.049Z,61.10
2023-08-29T03:31:15.019Z,61.10
2023-08-29T03:33:43.727Z,61.10
2023-08-29T03:36:11.462Z,61.00
2023-08-29T03:38:40.729Z,61.10
2023-08-29T03:41:08.909Z,61.10
2023-08-29T03:43:37.832Z,62.00
2023-08-29T03:46:07.536Z,61.20
2023-08-29T03:48:38.670Z,61.10
2023-08-29T03:51:09.317Z,61.20
2023-08-29T03:53:39.783Z,61.10
2023-08-29T03:56:10.851Z,61.00
2023-08-29T03:58:38.400Z,61.00
2023-08-29T04:01:05.974Z,61.10
2023-08-29T04:03:33.548Z,61.00
2023-08-29T04:06:02.076Z,61.00
2023-08-29T04:08:29.254Z,61.00
2023-08-29T04:10:58.000Z,61.10
2023-08-29T04:13:25.705Z,61.10
2023-08-29T04:15:52.775Z,61.10
2023-08-29T04:18:20.360Z,61.10
2023-08-29T04:20:47.380Z,61.10
2023-08-29T04:23:14.390Z,61.10
2023-08-29T04:25:41.645Z,61.10
2023-08-29T04:28:08.974Z,61.10
2023-08-29T04:30:36.800Z,61.10
2023-08-29T04:33:04.527Z,61.10
2023-08-29T04:35:32.008Z,61.00
2023-08-29T04:37:59.099Z,61.00
2023-08-29T04:40:26.273Z,61.00
2023-08-29T04:42:54.372Z,61.00
2023-08-29T04:45:21.745Z,61.00
2023-08-29T04:47:48.859Z,60.90
2023-08-29T04:50:16.737Z,60.90
2023-08-29T04:52:43.865Z,61.00
2023-08-29T04:55:11.274Z,61.00
2023-08-29T04:57:38.734Z,60.90
2023-08-29T05:00:10.163Z,61.00
2023-08-29T05:02:37.683Z,61.00
2023-08-29T05:05:07.115Z,60.90
2023-08-29T05:07:35.399Z,60.90
2023-08-29T05:10:03.020Z,60.90
2023-08-29T05:12:30.257Z,60.90
2023-08-29T05:14:57.499Z,61.00
2023-08-29T05:17:24.645Z,60.90
2023-08-29T05:19:52.608Z,61.00
2023-08-29T05:22:19.579Z,61.00
2023-08-29T05:24:46.628Z,61.00
2023-08-29T05:27:13.708Z,61.10
2023-08-29T05:29:42.497Z,61.10
2023-08-29T05:32:09.700Z,61.00
2023-08-29T05:34:36.772Z,61.00
2023-08-29T05:37:05.449Z,61.00
2023-08-29T05:39:32.509Z,61.00
2023-08-29T05:41:59.508Z,60.90
2023-08-29T05:44:26.604Z,61.00
2023-08-29T05:46:53.600Z,61.00
2023-08-29T05:49:20.766Z,61.90
2023-08-29T05:51:48.428Z,60.90
2023-08-29T05:54:16.387Z,61.00
2023-08-29T05:56:43.593Z,61.00
2023-08-29T05:59:11.261Z,60.90
2023-08-29T06:01:38.941Z,61.00
2023-08-29T06:04:06.517Z,61.00
2023-08-29T06:06:33.723Z,61.10
2023-08-29T06:09:00.875Z,62.00
2023-08-29T06:11:30.273Z,60.90
2023-08-29T06:13:57.417Z,60.90
2023-08-29T06:16:24.961Z,60.90
2023-08-29T06:18:52.432Z,60.90
2023-08-29T06:21:20.680Z,61.00
2023-08-29T06:23:47.881Z,61.00
2023-08-29T06:26:17.012Z,61.00
2023-08-29T06:28:44.050Z,61.10
2023-08-29T06:31:11.208Z,61.10
2023-08-29T06:33:39.713Z,61.00
2023-08-29T06:36:07.680Z,61.10
2023-08-29T06:38:36.156Z,61.00
2023-08-29T06:41:04.301Z,61.10
2023-08-29T06:43:31.907Z,61.10
2023-08-29T06:45:59.386Z,61.10
2023-08-29T06:48:26.428Z,61.30
2023-08-29T06:50:53.441Z,61.10
2023-08-29T06:53:20.405Z,61.00
2023-08-29T06:55:48.336Z,61.10
2023-08-29T06:58:15.924Z,61.00
2023-08-29T07:00:43.385Z,61.00
2023-08-29T07:03:10.518Z,61.00
2023-08-29T07:05:37.579Z,61.10
2023-08-29T07:08:05.835Z,61.00
2023-08-29T07:10:33.335Z,61.10
2023-08-29T07:13:00.432Z,61.10
2023-08-29T07:15:27.445Z,61.00
2023-08-29T07:17:55.087Z,61.00
2023-08-29T07:20:22.589Z,61.00
2023-08-29T07:22:49.763Z,61.80
2023-08-29T07:25:21.046Z,61.00
2023-08-29T07:27:48.270Z,61.00
2023-08-29T07:30:16.556Z,60.90
2023-08-29T07:32:45.575Z,60.90
2023-08-29T07:35:12.907Z,61.00
2023-08-29T07:37:40.228Z,61.00
2023-08-29T07:40:10.473Z,60.90
2023-08-29T07:42:37.598Z,60.90
2023-08-29T07:45:05.254Z,61.10
2023-08-29T07:47:32.497Z,60.80
2023-08-29T07:49:59.833Z,60.90
2023-08-29T07:52:27.388Z,60.80
2023-08-29T07:54:54.494Z,60.90
2023-08-29T07:57:22.137Z,60.90
2023-08-29T07:59:49.221Z,60.90
2023-08-29T08:02:16.320Z,61.00
2023-08-29T08:04:43.430Z,60.90
2023-08-29T08:07:10.696Z,61.00
2023-08-29T08:09:37.613Z,60.90
2023-08-29T08:12:05.607Z,61.00
2023-08-29T08:14:32.860Z,61.00
2023-08-29T08:16:59.993Z,60.90
2023-08-29T08:19:27.598Z,60.80
2023-08-29T08:21:55.112Z,60.70
2023-08-29T08:24:22.098Z,60.70
2023-08-29T08:26:50.104Z,60.90
2023-08-29T08:29:17.277Z,60.80
2023-08-29T08:31:44.782Z,60.70
2023-08-29T08:34:13.081Z,60.70
2023-08-29T08:36:40.777Z,60.80
2023-08-29T08:39:07.973Z,60.90
2023-08-29T08:41:35.376Z,61.00
2023-08-29T08:44:10.164Z,60.90
2023-08-29T08:46:39.409Z,61.00
2023-08-29T08:49:08.666Z,61.90
2023-08-29T08:51:38.992Z,61.00
2023-08-29T08:54:10.254Z,60.80
2023-08-29T08:56:40.167Z,60.80
2023-08-29T08:59:07.321Z,60.70
2023-08-29T09:01:35.002Z,60.70
2023-08-29T09:04:02.642Z,60.70
2023-08-29T09:06:31.133Z,60.70
2023-08-29T09:08:58.499Z,60.90
2023-08-29T09:11:26.128Z,60.90
2023-08-29T09:13:53.472Z,60.90
2023-08-29T09:16:22.916Z,60.90
2023-08-29T09:18:52.763Z,61.00
2023-08-29T09:21:23.467Z,60.90
2023-08-29T09:23:51.792Z,60.90
2023-08-29T09:26:19.368Z,61.00
2023-08-29T09:28:49.496Z,61.00
2023-08-29T09:31:17.618Z,60.90
2023-08-29T09:33:44.968Z,60.80
2023-08-29T09:36:12.062Z,60.80
2023-08-29T09:38:42.153Z,60.60
2023-08-29T09:41:15.865Z,60.80
2023-08-29T09:43:50.429Z,60.80
2023-08-29T09:46:30.846Z,60.90
2023-08-29T09:48:58.338Z,60.90
2023-08-29T09:51:27.700Z,60.90
2023-08-29T09:53:58.328Z,60.80
2023-08-29T09:56:27.320Z,60.80
2023-08-29T09:58:58.749Z,61.70
2023-08-29T10:01:26.691Z,60.60
2023-08-29T10:03:53.822Z,60.60
2023-08-29T10:06:22.285Z,60.70
2023-08-29T10:09:01.243Z,60.90
2023-08-29T10:11:32.418Z,60.90
2023-08-29T10:14:06.516Z,60.80
2023-08-29T10:16:35.694Z,61.00
2023-08-29T10:19:02.747Z,61.10
2023-08-29T10:21:31.290Z,61.00
2023-08-29T10:24:00.164Z,61.10
2023-08-29T10:26:29.073Z,61.00
2023-08-29T10:28:57.570Z,61.00
2023-08-29T10:31:26.080Z,61.00
2023-08-29T10:33:57.241Z,60.90
2023-08-29T10:36:26.358Z,60.90
2023-08-29T10:38:54.305Z,61.00
2023-08-29T10:41:22.068Z,60.90
2023-08-29T10:43:51.352Z,60.90
2023-08-29T10:46:18.679Z,61.00
2023-08-29T10:48:45.679Z,60.90
2023-08-29T10:51:18.392Z,61.80
2023-08-29T10:54:07.234Z,60.90
2023-08-29T10:56:44.105Z,60.80
2023-08-29T10:59:34.551Z,60.90
2023-08-29T11:02:28.610Z,61.00
2023-08-29T11:05:04.628Z,61.00
2023-08-29T11:07:33.110Z,60.90
2023-08-29T11:10:23.217Z,61.00
2023-08-29T11:13:12.752Z,61.00
2023-08-29T11:15:48.919Z,61.00
2023-08-29T11:18:42.522Z,61.10
2023-08-29T11:21:11.307Z,61.00
2023-08-29T11:23:41.799Z,60.90
2023-08-29T11:26:10.061Z,60.90
2023-08-29T11:28:46.277Z,60.90
2023-08-29T11:31:13.683Z,60.90
2023-08-29T11:33:40.900Z,60.90
2023-08-29T11:36:08.707Z,60.90
2023-08-29T11:38:36.505Z,61.80
2023-08-29T11:41:16.064Z,60.90
2023-08-29T11:44:24.271Z,60.90
2023-08-29T11:46:39.261Z,60.70
2023-08-29T11:49:17.366Z,60.70
2023-08-29T11:51:45.376Z,60.60
2023-08-29T11:54:46.302Z,60.60
2023-08-29T11:57:16.956Z,60.60
2023-08-29T11:59:49.055Z,60.70
2023-08-29T12:02:19.978Z,60.70
2023-08-29T12:04:54.952Z,60.70
2023-08-29T12:07:21.925Z,60.80
2023-08-29T12:09:50.208Z,60.90
2023-08-29T12:12:38.164Z,60.90
2023-08-29T12:15:07.759Z,60.90
2023-08-29T12:17:43.963Z,60.90
2023-08-29T12:20:17.584Z,60.80
2023-08-29T12:22:52.597Z,60.90
2023-08-29T12:25:20.712Z,60.90
2023-08-29T12:27:49.127Z,60.90
2023-08-29T12:30:16.716Z,60.90
2023-08-29T12:32:45.942Z,60.90
2023-08-29T12:35:18.000Z,61.90
2023-08-29T12:37:46.049Z,61.90
2023-08-29T12:40:14.204Z,61.00
2023-08-29T12:42:43.943Z,61.00
2023-08-29T12:45:11.300Z,61.00
2023-08-29T12:47:39.394Z,61.00
2023-08-29T12:50:07.723Z,61.00
2023-08-29T12:52:35.180Z,61.10
2023-08-29T12:55:02.440Z,61.00
2023-08-29T12:57:30.034Z,61.00
2023-08-29T12:59:57.709Z,60.80
2023-08-29T13:02:24.715Z,60.90
2023-08-29T13:04:51.909Z,60.90
2023-08-29T13:07:19.196Z,61.00
2023-08-29T13:09:49.561Z,60.90
2023-08-29T13:12:17.157Z,61.00
2023-08-29T13:14:44.204Z,61.00
2023-08-29T13:17:14.695Z,61.10
2023-08-29T13:19:42.461Z,61.10
2023-08-29T13:22:09.805Z,61.10
2023-08-29T13:24:37.319Z,61.10
2023-08-29T13:27:05.725Z,61.00
2023-08-29T13:29:32.938Z,61.00
2023-08-29T13:32:00.320Z,61.00
2023-08-29T13:34:28.223Z,61.10
2023-08-29T13:36:55.544Z,61.00
2023-08-29T13:39:22.719Z,60.90
2023-08-29T13:41:50.045Z,60.90
2023-08-29T13:44:17.873Z,61.00
2023-08-29T13:46:46.752Z,61.00
2023-08-29T13:49:15.247Z,61.00
2023-08-29T13:51:42.241Z,61.00
2023-08-29T13:54:09.281Z,61.00
2023-08-29T13:56:37.086Z,61.10
2023-08-29T13:59:04.881Z,61.10
2023-08-29T14:01:32.263Z,61.10
2023-08-29T14:03:59.394Z,61.10
2023-08-29T14:06:26.746Z,61.00
2023-08-29T14:08:54.501Z,60.90
2023-08-29T14:11:22.278Z,61.00
2023-08-29T14:13:50.468Z,61.00
2023-08-29T14:16:17.636Z,61.00
2023-08-29T14:18:47.332Z,61.90
2023-08-29T14:21:15.080Z,60.90
2023-08-29T14:23:42.097Z,60.90
2023-08-29T14:26:13.859Z,61.00
2023-08-29T14:28:41.034Z,61.10
2023-08-29T14:31:08.178Z,61.00
2023-08-29T14:33:35.310Z,60.90
2023-08-29T14:36:05.023Z,60.90
2023-08-29T14:38:32.489Z,60.90
2023-08-29T14:41:13.246Z,60.90
2023-08-29T14:43:41.073Z,61.00
2023-08-29T14:46:09.108Z,61.00
2023-08-29T14:48:38.249Z,61.00
2023-08-29T14:51:09.533Z,61.00
2023-08-29T14:53:39.710Z,61.00
2023-08-29T14:56:08.472Z,61.00
2023-08-29T14:58:35.500Z,61.00
2023-08-29T15:01:04.814Z,61.00
2023-08-29T15:03:32.959Z,61.00
2023-08-29T15:06:02.257Z,61.00
2023-08-29T15:08:29.429Z,61.00
2023-08-29T15:10:57.061Z,61.10
2023-08-29T15:13:29.119Z,61.10
2023-08-29T15:16:06.280Z,62.20
2023-08-29T15:18:36.138Z,61.20
2023-08-29T15:21:03.176Z,61.20
2023-08-29T15:23:33.666Z,61.20
2023-08-29T15:26:05.145Z,61.20
2023-08-29T15:28:32.649Z,61.20
2023-08-29T15:31:02.489Z,61.10
2023-08-29T15:33:30.613Z,61.10
2023-08-29T15:35:58.549Z,61.10
2023-08-29T15:38:26.246Z,61.10
2023-08-29T15:40:56.938Z,61.00
2023-08-29T15:43:27.491Z,61.10
2023-08-29T15:45:56.228Z,61.10
2023-08-29T15:48:23.617Z,61.00
2023-08-29T15:50:55.135Z,61.10
2023-08-29T15:53:22.558Z,61.00
2023-08-29T15:55:50.445Z,61.00
2023-08-29T15:58:18.810Z,61.10
2023-08-29T16:00:45.951Z,61.00
2023-08-29T16:03:13.222Z,61.10
2023-08-29T16:05:40.380Z,61.00
2023-08-29T16:08:07.623Z,61.10
2023-08-29T16:10:34.848Z,61.10
2023-08-29T16:13:02.114Z,61.10
2023-08-29T16:15:29.520Z,61.10
2023-08-29T16:17:56.836Z,61.10
2023-08-29T16:20:25.204Z,61.10
2023-08-29T16:22:52.934Z,61.20
2023-08-29T16:25:20.072Z,61.10
2023-08-29T16:27:47.264Z,61.10
2023-08-29T16:30:14.829Z,61.00
2023-08-29T16:32:42.061Z,61.00
2023-08-29T16:35:09.448Z,61.00
2023-08-29T16:37:39.852Z,61.00
2023-08-29T16:40:08.490Z,61.10
2023-08-29T16:42:36.050Z,61.10
2023-08-29T16:45:05.421Z,61.10
2023-08-29T16:47:32.757Z,61.10
2023-08-29T16:49:59.777Z,61.10
2023-08-29T16:52:28.236Z,61.10
2023-08-29T16:54:55.382Z,61.10
2023-08-29T16:57:22.637Z,61.00
2023-08-29T16:59:56.873Z,61.10
2023-08-29T17:02:25.220Z,61.10
2023-08-29T17:04:54.169Z,61.10
2023-08-29T17:07:22.083Z,61.10
2023-08-29T17:09:49.471Z,61.10
2023-08-29T17:12:18.970Z,61.30
2023-08-29T17:14:47.181Z,61.20
2023-08-29T17:17:14.421Z,61.00
2023-08-29T17:19:42.617Z,61.10
2023-08-29T17:22:10.665Z,61.10
2023-08-29T17:24:38.425Z,61.10
2023-08-29T17:27:06.176Z,61.00
2023-08-29T17:29:34.895Z,61.10
2023-08-29T17:32:02.174Z,61.00
2023-08-29T17:34:29.457Z,61.10
2023-08-29T17:36:59.495Z,60.90
2023-08-29T17:39:27.419Z,61.90
2023-08-29T17:41:55.472Z,61.10
2023-08-29T17:44:22.561Z,61.10
2023-08-29T17:46:49.643Z,61.20
2023-08-29T17:49:18.969Z,61.10
2023-08-29T17:51:46.478Z,61.20
2023-08-29T17:54:13.723Z,61.20
2023-08-29T17:56:41.340Z,61.10
2023-08-29T17:59:08.699Z,61.20
2023-08-29T18:01:35.860Z,61.30
2023-08-29T18:04:11.566Z,61.30
2023-08-29T18:06:40.615Z,61.30
2023-08-29T18:09:07.947Z,61.20
2023-08-29T18:11:35.895Z,61.30
2023-08-29T18:14:04.976Z,61.20
2023-08-29T18:16:32.253Z,61.20
2023-08-29T18:19:01.167Z,61.20
2023-08-29T18:21:28.505Z,61.10
2023-08-29T18:23:56.116Z,61.10
2023-08-29T18:26:23.167Z,61.10
2023-08-29T18:28:50.246Z,61.20
2023-08-29T18:31:17.482Z,61.20
2023-08-29T18:33:44.753Z,61.30
2023-08-29T18:36:12.203Z,61.20
2023-08-29T18:38:39.197Z,61.40
2023-08-29T18:41:06.579Z,61.20
2023-08-29T18:43:33.763Z,61.30
2023-08-29T18:46:00.956Z,61.30
2023-08-29T18:48:28.130Z,61.30
2023-08-29T18:50:55.108Z,61.40
2023-08-29T18:53:22.565Z,61.40
2023-08-29T18:55:49.601Z,61.30
2023-08-29T18:58:16.750Z,61.40
2023-08-29T19:00:46.600Z,61.40
2023-08-29T19:03:13.901Z,61.50
2023-08-29T19:05:41.438Z,61.40
2023-08-29T19:08:08.942Z,62.30
2023-08-29T19:10:45.206Z,61.50
2023-08-29T19:13:14.675Z,61.40
2023-08-29T19:15:41.876Z,61.40
2023-08-29T19:18:11.704Z,61.50
2023-08-29T19:20:39.209Z,61.40
2023-08-29T19:23:06.690Z,61.50
2023-08-29T19:25:34.115Z,61.50
2023-08-29T19:28:01.147Z,61.60
2023-08-29T19:30:28.304Z,61.50
2023-08-29T19:33:00.787Z,61.50
2023-08-29T19:35:30.802Z,61.50
2023-08-29T19:37:58.192Z,61.50
2023-08-29T19:40:25.688Z,61.40
2023-08-29T19:42:52.737Z,61.50
2023-08-29T19:45:19.800Z,61.50
2023-08-29T19:47:46.982Z,61.50
2023-08-29T19:50:14.356Z,61.50
2023-08-29T19:52:42.069Z,61.50
2023-08-29T19:55:09.775Z,61.60
2023-08-29T19:57:37.605Z,61.40
2023-08-29T20:00:09.413Z,61.50
2023-08-29T20:02:47.319Z,61.50
2023-08-29T20:05:14.522Z,61.50
2023-08-29T20:07:41.847Z,61.50
2023-08-29T20:10:09.493Z,61.50
2023-08-29T20:12:36.594Z,61.50
2023-08-29T20:15:05.336Z,61.60
2023-08-29T20:17:32.541Z,61.50
2023-08-29T20:19:59.809Z,61.50
2023-08-29T20:22:26.918Z,61.60
2023-08-29T20:24:54.030Z,61.50
2023-08-29T20:27:21.225Z,61.70
2023-08-29T20:29:50.963Z,61.70
2023-08-29T20:32:18.058Z,61.60
2023-08-29T20:34:45.148Z,61.70
2023-08-29T20:37:12.203Z,61.60
2023-08-29T20:39:39.241Z,61.50
2023-08-29T20:42:07.016Z,61.60
2023-08-29T20:44:34.018Z,61.60
2023-08-29T20:47:01.446Z,61.60
2023-08-29T20:49:28.554Z,61.60
2023-08-29T20:51:55.522Z,61.70
2023-08-29T20:54:22.513Z,61.70
2023-08-29T20:56:49.680Z,61.60
2023-08-29T20:59:16.702Z,61.70
2023-08-29T21:01:43.662Z,61.70
2023-08-29T21:04:10.642Z,61.70
2023-08-29T21:06:39.830Z,61.70
2023-08-29T21:09:07.310Z,61.60
2023-08-29T21:11:34.452Z,61.70
2023-08-29T21:14:01.538Z,61.70
2023-08-29T21:16:28.602Z,61.70
2023-08-29T21:18:55.817Z,61.60
2023-08-29T21:21:23.047Z,61.70
2023-08-29T21:23:50.180Z,61.70
2023-08-29T21:26:17.374Z,61.70
2023-08-29T21:28:44.567Z,61.70
2023-08-29T21:31:11.729Z,62.60
2023-08-29T21:33:38.760Z,61.70
2023-08-29T21:36:06.658Z,61.60
2023-08-29T21:38:34.532Z,61.70
2023-08-29T21:41:05.299Z,61.70
2023-08-29T21:43:32.709Z,61.80
2023-08-29T21:46:01.675Z,61.80
2023-08-29T21:48:32.039Z,61.70
2023-08-29T21:50:59.753Z,61.70
2023-08-29T21:53:26.922Z,61.70
2023-08-29T21:55:54.104Z,61.70
2023-08-29T21:58:21.464Z,61.70
2023-08-29T22:00:53.878Z,61.80
2023-08-29T22:03:25.767Z,61.80
2023-08-29T22:05:53.615Z,61.70
2023-08-29T22:08:21.444Z,61.70
2023-08-29T22:10:49.770Z,62.60
2023-08-29T22:13:17.072Z,61.70
2023-08-29T22:15:44.069Z,61.80
2023-08-29T22:18:12.126Z,61.80
2023-08-29T22:20:40.054Z,61.80
2023-08-29T22:23:07.198Z,61.80
2023-08-29T22:25:34.355Z,61.80
2023-08-29T22:28:01.454Z,61.80
2023-08-29T22:30:28.505Z,61.80
2023-08-29T22:32:55.757Z,61.80
2023-08-29T22:35:23.003Z,61.80
2023-08-29T22:37:50.022Z,61.80
2023-08-29T22:40:17.916Z,61.80
2023-08-29T22:42:45.976Z,61.80
2023-08-29T22:45:16.061Z,61.80
2023-08-29T22:47:43.075Z,61.80
2023-08-29T22:50:10.354Z,61.70
2023-08-29T22:52:39.582Z,61.70
2023-08-29T22:55:07.406Z,61.70
2023-08-29T22:57:34.603Z,61.60
2023-08-29T23:00:01.923Z,61.80
2023-08-29T23:02:29.078Z,61.70
2023-08-29T23:04:56.467Z,61.80
2023-08-29T23:07:23.603Z,61.70
2023-08-29T23:09:50.918Z,61.80
2023-08-29T23:12:18.013Z,61.90
2023-08-29T23:14:44.996Z,61.90
2023-08-29T23:17:13.269Z,61.80
2023-08-29T23:19:45.035Z,61.70
2023-08-29T23:22:12.438Z,61.70
2023-08-29T23:24:39.768Z,61.80
2023-08-29T23:27:07.302Z,61.80
2023-08-29T23:29:37.198Z,61.70
2023-08-29T23:32:05.884Z,61.80
2023-08-29T23:34:33.235Z,61.70
2023-08-29T23:37:00.465Z,61.70
2023-08-29T23:39:27.659Z,61.70
2023-08-29T23:41:56.935Z,61.80
2023-08-29T23:44:23.965Z,61.80
2023-08-29T23:46:51.097Z,61.80
2023-08-29T23:49:18.540Z,61.90
2023-08-29T23:51:45.709Z,61.70
2023-08-29T23:54:12.906Z,61.80
2023-08-29T23:56:40.451Z,61.80
2023-08-29T23:59:07.814Z,61.90
